Time;durP1;ratioP1;P1;durP2;ratioP2;P2;SDS_P1;SDS_P2;PMS_P1;PMS_P2;Temp;Humidity;BMP_temperature;BMP_pressure;BME280_temperature;BME280_humidity;BME280_pressure;Samples;Min_cycle;Max_cycle;Signal;HPM_P1;HPM_P2
2020/03/13 00:00:56;;;;;;;7.4;3.3;;;;;;;11.68;76.59766;936.0632;;;;
2020/03/13 00:03:21;;;;;;;7.6;3.4;;;;;;;11.72;76.6377;936.0656;;;;
2020/03/13 00:05:46;;;;;;;7.9;3.4;;;;;;;11.81;76.54102;936.1325;;;;
2020/03/13 00:08:11;;;;;;;5;2.8;;;;;;;11.72;76.06543;936.001;;;;
2020/03/13 00:11:16;;;;;;;5.1;2.5;;;;;;;11.41;78.04785;936.0446;;;;
2020/03/13 00:13:41;;;;;;;6.8;3.2;;;;;;;11.26;79.08398;936.0983;;;;
2020/03/13 00:16:06;;;;;;;4.8;3.2;;;;;;;11.53;78.21777;936.0363;;;;
2020/03/13 00:18:31;;;;;;;7.4;3.4;;;;;;;11.64;77.63281;936.1062;;;;
2020/03/13 00:20:56;;;;;;;6.7;3.3;;;;;;;11.71;77.54102;936.108;;;;
2020/03/13 00:23:21;;;;;;;5.9;3.2;;;;;;;11.61;77.88965;936.1532;;;;
2020/03/13 00:25:47;;;;;;;6.1;3.4;;;;;;;11.68;77.70801;936.1923;;;;
2020/03/13 00:28:12;;;;;;;10.2;3.9;;;;;;;10.94;81.27832;936.1707;;;;
2020/03/13 00:30:37;;;;;;;6.7;3.5;;;;;;;11.15;80.81348;936.0961;;;;
2020/03/13 00:33:02;;;;;;;7.6;3.7;;;;;;;11.31;79.95215;936.037;;;;
2020/03/13 00:35:27;;;;;;;8.2;4;;;;;;;11.38;79.87207;935.9934;;;;
2020/03/13 00:37:53;;;;;;;5.9;3.5;;;;;;;11.54;78.88379;936.0092;;;;
2020/03/13 00:40:18;;;;;;;6.9;3.5;;;;;;;11.68;77.85645;936.0145;;;;
2020/03/13 00:42:43;;;;;;;5.4;3.3;;;;;;;11.77;77.49512;935.9827;;;;
2020/03/13 00:45:08;;;;;;;7;3.4;;;;;;;11.13;80.27344;936.0226;;;;
2020/03/13 00:47:33;;;;;;;8.8;3.5;;;;;;;11.28;79.97949;936.0952;;;;
2020/03/13 00:49:58;;;;;;;8.1;3.4;;;;;;;11.45;79.77148;936.1255;;;;
2020/03/13 00:52:23;;;;;;;6.7;3.3;;;;;;;11.53;78.65332;936.1775;;;;
2020/03/13 00:54:49;;;;;;;5.6;3.1;;;;;;;11.47;78.4834;936.088;;;;
2020/03/13 00:57:14;;;;;;;4.9;3;;;;;;;11.26;79.58789;936.1158;;;;
2020/03/13 00:59:39;;;;;;;5.1;3;;;;;;;11.47;78.96387;936.0944;;;;
2020/03/13 01:02:04;;;;;;;5.7;2.6;;;;;;;11.5;78.28223;936.0083;;;;
2020/03/13 01:04:29;;;;;;;6;3.1;;;;;;;11.15;79.94531;936.0092;;;;
2020/03/13 01:06:54;;;;;;;5.9;2.3;;;;;;;11.45;77.89453;936.0633;;;;
2020/03/13 01:09:20;;;;;;;6.2;2.1;;;;;;;11.5;77.27539;936.0992;;;;
2020/03/13 01:11:45;;;;;;;3.5;1.4;;;;;;;11.64;75.18164;936.1685;;;;
2020/03/13 01:14:10;;;;;;;3.5;2.1;;;;;;;11.35;77.01855;936.1369;;;;
2020/03/13 01:16:35;;;;;;;4.1;2.1;;;;;;;11.62;76.22168;936.1588;;;;
2020/03/13 01:19:00;;;;;;;3.6;1.5;;;;;;;11.7;73.97852;936.2506;;;;
2020/03/13 01:21:25;;;;;;;2;1.1;;;;;;;11.27;73.72363;936.2427;;;;
2020/03/13 01:23:51;;;;;;;2.1;0.7;;;;;;;10.99;73.27539;936.2952;;;;
2020/03/13 01:26:16;;;;;;;0.4;0.4;;;;;;;10.68;72.98242;936.3092;;;;
2020/03/13 01:28:41;;;;;;;2.2;0.5;;;;;;;10.32;73.91406;936.3278;;;;
2020/03/13 01:31:06;;;;;;;2;0.5;;;;;;;10.11;74.75684;936.2978;;;;
2020/03/13 01:33:31;;;;;;;1.3;0.6;;;;;;;10.08;74.86523;936.4097;;;;
2020/03/13 01:35:56;;;;;;;1.7;0.7;;;;;;;9.88;75.62988;936.4316;;;;
2020/03/13 01:38:21;;;;;;;0.8;0.4;;;;;;;9.75;75.58496;936.5701;;;;
2020/03/13 01:40:47;;;;;;;1.1;0.5;;;;;;;9.68;75.85547;936.4144;;;;
2020/03/13 01:43:12;;;;;;;0.5;0.5;;;;;;;9.33;76.90039;936.535;;;;
2020/03/13 01:45:38;;;;;;;1.5;0.5;;;;;;;9.37;76.62305;936.483;;;;
2020/03/13 01:48:04;;;;;;;1.9;0.6;;;;;;;9.36;76.0166;936.5901;;;;
2020/03/13 01:50:29;;;;;;;1.6;0.7;;;;;;;9.18;76.34863;936.5966;;;;
2020/03/13 01:52:54;;;;;;;1.3;0.6;;;;;;;9.06;76.61133;936.7126;;;;
2020/03/13 01:55:19;;;;;;;1.2;0.5;;;;;;;8.96;76.61816;936.7079;;;;
2020/03/13 01:57:44;;;;;;;2.4;0.8;;;;;;;8.96;76.16113;936.8286;;;;
2020/03/13 02:00:09;;;;;;;2.6;0.9;;;;;;;8.79;76.90723;936.9055;;;;
2020/03/13 02:02:34;;;;;;;2.1;1;;;;;;;8.65;76.7666;936.8448;;;;
2020/03/13 02:05:00;;;;;;;3.4;0.9;;;;;;;8.57;76.96973;936.9822;;;;
2020/03/13 02:07:25;;;;;;;2.1;0.9;;;;;;;8.43;77.90918;936.9063;;;;
2020/03/13 02:09:50;;;;;;;2.1;1;;;;;;;8.24;78.27246;936.9235;;;;
2020/03/13 02:12:15;;;;;;;3.4;0.9;;;;;;;8.31;77.74023;936.9078;;;;
2020/03/13 02:14:40;;;;;;;3.7;1;;;;;;;8.23;78.08887;936.921;;;;
2020/03/13 02:17:05;;;;;;;3.4;1;;;;;;;8.18;77.89746;936.9483;;;;
2020/03/13 02:19:31;;;;;;;1.9;0.8;;;;;;;8.16;78.62109;936.9361;;;;
2020/03/13 02:21:56;;;;;;;2.5;1.3;;;;;;;8.3;77.93066;937.01;;;;
2020/03/13 02:24:21;;;;;;;2.5;1;;;;;;;8.45;77.31055;937.0733;;;;
2020/03/13 02:26:47;;;;;;;3;0.8;;;;;;;8.47;76.8252;937.1124;;;;
2020/03/13 02:29:12;;;;;;;2;0.8;;;;;;;8.47;76.99512;937.1569;;;;
2020/03/13 02:31:38;;;;;;;3.7;1;;;;;;;8.47;77.14355;937.118;;;;
2020/03/13 02:34:03;;;;;;;3.6;0.9;;;;;;;8.41;77.31348;937.2508;;;;
2020/03/13 02:36:28;;;;;;;2.6;0.9;;;;;;;8.21;78.09668;937.2816;;;;
2020/03/13 02:38:53;;;;;;;2.6;1;;;;;;;8.25;77.95605;937.2606;;;;
2020/03/13 02:41:18;;;;;;;2.8;1;;;;;;;7.92;78.97559;937.4108;;;;
2020/03/13 02:43:47;;;;;;;3.7;1;;;;;;;7.84;79.87988;937.4363;;;;
2020/03/13 02:46:12;;;;;;;3.1;1.1;;;;;;;7.96;79.36816;937.4058;;;;
2020/03/13 02:48:37;;;;;;;4.2;1.1;;;;;;;7.93;78.98828;937.468;;;;
2020/03/13 02:51:03;;;;;;;2.3;0.9;;;;;;;7.62;81.13184;937.4589;;;;
2020/03/13 02:53:28;;;;;;;3.3;1.1;;;;;;;7.74;80.61914;937.4943;;;;
2020/03/13 02:55:53;;;;;;;3;1.2;;;;;;;7.8;80.39453;937.5859;;;;
2020/03/13 02:58:18;;;;;;;2.8;1.1;;;;;;;7.78;80.71875;937.5878;;;;
2020/03/13 03:00:43;;;;;;;2.3;1;;;;;;;7.73;80.72168;937.4792;;;;
2020/03/13 03:03:08;;;;;;;3.2;1;;;;;;;7.81;80.38281;937.6387;;;;
2020/03/13 03:05:33;;;;;;;4.6;1.3;;;;;;;7.88;80.02441;937.574;;;;
2020/03/13 03:07:58;;;;;;;2.5;1;;;;;;;7.7;81.10156;937.7433;;;;
2020/03/13 03:10:23;;;;;;;3.7;1.1;;;;;;;7.89;80.16211;937.8431;;;;
2020/03/13 03:12:48;;;;;;;4.7;1.2;;;;;;;7.7;80.30664;937.8533;;;;
2020/03/13 03:15:13;;;;;;;2.4;1.1;;;;;;;7.8;80.18848;937.9108;;;;
2020/03/13 03:17:39;;;;;;;3.3;1.1;;;;;;;7.49;80.61914;937.8775;;;;
2020/03/13 03:20:04;;;;;;;3.9;1.3;;;;;;;7.47;80.64941;937.8582;;;;
2020/03/13 03:22:29;;;;;;;4.3;1.2;;;;;;;7.41;80.97754;937.8972;;;;
2020/03/13 03:24:54;;;;;;;3.9;1.3;;;;;;;7.25;81.57031;937.9625;;;;
2020/03/13 03:27:19;;;;;;;4;1.3;;;;;;;7.44;81.20996;937.954;;;;
2020/03/13 03:29:44;;;;;;;5.8;1.3;;;;;;;7.61;80.65234;937.9023;;;;
2020/03/13 03:32:09;;;;;;;3.7;1.3;;;;;;;7.56;80.77832;937.8694;;;;
2020/03/13 03:34:34;;;;;;;2.3;1.1;;;;;;;7.75;79.99902;937.8425;;;;
2020/03/13 03:37:00;;;;;;;3;1;;;;;;;7.78;79.86816;937.8295;;;;
2020/03/13 03:39:25;;;;;;;2.9;1;;;;;;;7.97;78.97266;937.8167;;;;
2020/03/13 03:41:50;;;;;;;2.9;1.2;;;;;;;8.02;78.16309;937.718;;;;
2020/03/13 03:44:15;;;;;;;3.3;1;;;;;;;8.05;78.10352;937.7076;;;;
2020/03/13 03:46:40;;;;;;;2.4;1.1;;;;;;;7.93;78.51172;937.7153;;;;
2020/03/13 03:49:06;;;;;;;3.1;1.2;;;;;;;7.79;78.80273;937.9122;;;;
2020/03/13 03:51:31;;;;;;;3.3;1.2;;;;;;;7.75;79.20508;937.9431;;;;
2020/03/13 03:53:56;;;;;;;3.4;1.1;;;;;;;7.6;79.34668;938.0357;;;;
2020/03/13 03:56:22;;;;;;;3.3;1;;;;;;;7.62;79.30469;938.0483;;;;
2020/03/13 03:58:47;;;;;;;2.7;1.1;;;;;;;7.82;79.01367;938.0399;;;;
2020/03/13 04:02:30;;;;;;;4.4;1.3;;;;;;;7.93;78.45508;937.9666;;;;
2020/03/13 04:04:55;;;;;;;3;1.1;;;;;;;7.85;77.9502;938.0649;;;;
2020/03/13 04:07:20;;;;;;;3.8;1.2;;;;;;;7.9;78.29102;938.2888;;;;
2020/03/13 04:09:45;;;;;;;3.2;1.1;;;;;;;7.86;78.91797;938.3791;;;;
2020/03/13 04:12:10;;;;;;;2.8;1.1;;;;;;;7.79;78.78027;938.3663;;;;
2020/03/13 04:14:35;;;;;;;4;1.1;;;;;;;7.64;79.38672;938.4489;;;;
2020/03/13 04:17:00;;;;;;;3.7;1.4;;;;;;;7.75;78.87598;938.4703;;;;
2020/03/13 04:19:25;;;;;;;3.1;1.1;;;;;;;7.67;79.08789;938.5439;;;;
2020/03/13 04:21:50;;;;;;;3.2;1.3;;;;;;;7.72;78.51758;938.5203;;;;
2020/03/13 04:24:16;;;;;;;3.5;1.1;;;;;;;7.57;79.11426;938.4409;;;;
2020/03/13 04:26:41;;;;;;;3;1.2;;;;;;;7.56;79.38477;938.3979;;;;
2020/03/13 04:29:06;;;;;;;3.4;1.2;;;;;;;7.6;79.29102;938.2386;;;;
2020/03/13 04:31:31;;;;;;;2.2;1;;;;;;;7.63;79.52148;938.1856;;;;
2020/03/13 04:33:56;;;;;;;3.5;1.2;;;;;;;7.61;79.35938;938.3988;;;;
2020/03/13 04:36:21;;;;;;;1.9;0.9;;;;;;;7.55;79.50684;938.4705;;;;
2020/03/13 04:38:46;;;;;;;2.5;1;;;;;;;7.73;79.09961;938.3904;;;;
2020/03/13 04:41:11;;;;;;;2.1;1;;;;;;;7.65;78.33398;938.434;;;;
2020/03/13 04:43:36;;;;;;;2.3;1.1;;;;;;;7.46;78.99121;938.4282;;;;
2020/03/13 04:46:01;;;;;;;2;1;;;;;;;7.45;79.30859;938.4478;;;;
2020/03/13 04:48:27;;;;;;;2;1.3;;;;;;;7.51;79.77148;938.5806;;;;
2020/03/13 04:50:52;;;;;;;3.7;1.1;;;;;;;7.71;79.24316;938.6027;;;;
2020/03/13 04:53:17;;;;;;;2.8;1.1;;;;;;;7.78;78.13184;938.5144;;;;
2020/03/13 04:55:42;;;;;;;3.1;1.2;;;;;;;7.92;77.82715;938.3359;;;;
2020/03/13 04:58:07;;;;;;;3.3;1.2;;;;;;;7.99;77.39746;938.4037;;;;
2020/03/13 05:00:33;;;;;;;3.5;1.2;;;;;;;7.89;77.24414;938.459;;;;
2020/03/13 05:02:58;;;;;;;3.7;1.1;;;;;;;7.85;77.28125;938.382;;;;
2020/03/13 05:05:23;;;;;;;2.5;1.1;;;;;;;7.9;77.37207;938.3078;;;;
2020/03/13 05:07:48;;;;;;;4.5;1.2;;;;;;;7.92;77.39648;938.3169;;;;
2020/03/13 05:10:13;;;;;;;3.3;1.1;;;;;;;7.93;77.5127;938.4755;;;;
2020/03/13 05:12:38;;;;;;;2.8;1.2;;;;;;;8.11;76.53516;938.6086;;;;
2020/03/13 05:15:03;;;;;;;2.2;1.2;;;;;;;8.18;76.43262;938.6122;;;;
2020/03/13 05:17:28;;;;;;;3.3;1.3;;;;;;;8.23;76.33984;938.5992;;;;
2020/03/13 05:19:53;;;;;;;4;1.2;;;;;;;8.25;76.09375;938.5203;;;;
2020/03/13 05:22:18;;;;;;;4.5;1.3;;;;;;;8.08;77.05078;938.5215;;;;
2020/03/13 05:24:43;;;;;;;3.7;1.3;;;;;;;8.13;76.57227;938.6138;;;;
2020/03/13 05:27:09;;;;;;;2.8;1.3;;;;;;;8.22;76.03027;938.5372;;;;
2020/03/13 05:29:34;;;;;;;5.2;1.2;;;;;;;7.96;76.89355;938.4889;;;;
2020/03/13 05:31:59;;;;;;;3.5;1.3;;;;;;;7.91;76.99707;938.4966;;;;
2020/03/13 05:34:25;;;;;;;4.1;1.7;;;;;;;7.89;77.5166;938.3861;;;;
2020/03/13 05:36:50;;;;;;;3.3;1.7;;;;;;;7.97;77.33789;938.4899;;;;
2020/03/13 05:39:15;;;;;;;4.5;1.6;;;;;;;7.84;77.95996;938.5356;;;;
2020/03/13 05:41:40;;;;;;;4.7;1.9;;;;;;;7.78;78.23438;938.6443;;;;
2020/03/13 05:44:05;;;;;;;4.7;1.9;;;;;;;7.95;78.08398;938.587;;;;
2020/03/13 05:46:30;;;;;;;4.5;1.7;;;;;;;8.01;77.94727;938.5886;;;;
2020/03/13 05:48:55;;;;;;;4.5;1.5;;;;;;;8.04;77.91699;938.5859;;;;
2020/03/13 05:51:21;;;;;;;3.6;1.5;;;;;;;8.11;77.44141;938.5871;;;;
2020/03/13 05:53:46;;;;;;;3;1.5;;;;;;;8.23;77.3623;938.601;;;;
2020/03/13 05:56:11;;;;;;;4.4;1.5;;;;;;;8.31;76.83203;938.7047;;;;
2020/03/13 05:58:36;;;;;;;4;1.5;;;;;;;8.34;76.38184;938.7937;;;;
2020/03/13 06:01:02;;;;;;;3.6;1.3;;;;;;;8.2;76.61719;938.7864;;;;
2020/03/13 06:03:27;;;;;;;6;1.7;;;;;;;8.24;76.23926;938.7709;;;;
2020/03/13 06:05:52;;;;;;;3.8;1.5;;;;;;;8.31;76.51367;938.7189;;;;
2020/03/13 06:08:17;;;;;;;3.6;1.4;;;;;;;8.24;76.45508;938.7924;;;;
2020/03/13 06:10:42;;;;;;;6.1;1.7;;;;;;;8.1;76.93066;938.7631;;;;
2020/03/13 06:13:08;;;;;;;4.1;1.8;;;;;;;8.04;77.73633;938.8365;;;;
2020/03/13 06:15:33;;;;;;;4.6;1.8;;;;;;;8.05;77.75;938.8167;;;;
2020/03/13 06:17:58;;;;;;;3.9;1.6;;;;;;;8.07;77.77539;938.8362;;;;
2020/03/13 06:20:24;;;;;;;4.7;1.6;;;;;;;8.13;77.57129;938.7573;;;;
2020/03/13 06:22:49;;;;;;;5;1.5;;;;;;;8.2;77.52734;938.811;;;;
2020/03/13 06:25:14;;;;;;;3.5;1.7;;;;;;;8.19;77.18359;938.8845;;;;
2020/03/13 06:27:39;;;;;;;7;2;;;;;;;8.11;77.88477;939.0248;;;;
2020/03/13 06:30:04;;;;;;;4.6;1.8;;;;;;;7.85;78.82715;938.9822;;;;
2020/03/13 06:32:30;;;;;;;4.7;1.7;;;;;;;8.13;77.84375;939.0048;;;;
2020/03/13 06:34:55;;;;;;;3.8;1.6;;;;;;;8.14;77.52734;939.0359;;;;
2020/03/13 06:37:20;;;;;;;2.8;1.6;;;;;;;8.18;77.27441;939.0779;;;;
2020/03/13 06:39:45;;;;;;;5;1.7;;;;;;;8.28;76.9043;939.0936;;;;
2020/03/13 06:42:10;;;;;;;3.6;1.5;;;;;;;8.19;77.30859;939.0535;;;;
2020/03/13 06:44:36;;;;;;;3.5;1.6;;;;;;;8.29;76.45313;939.1462;;;;
2020/03/13 06:47:00;;;;;;;4.2;1.8;;;;;;;8.39;76.69824;939.2388;;;;
2020/03/13 06:49:25;;;;;;;4.2;1.8;;;;;;;8.32;77.13965;939.264;;;;
2020/03/13 06:51:50;;;;;;;6;2;;;;;;;8.31;76.78613;939.1601;;;;
2020/03/13 06:54:15;;;;;;;6.4;1.9;;;;;;;8.26;77.43555;939.1995;;;;
2020/03/13 06:56:40;;;;;;;5;1.6;;;;;;;7.45;80.78223;939.1925;;;;
2020/03/13 06:59:06;;;;;;;3.7;1.6;;;;;;;7.55;81.54883;939.3492;;;;
2020/03/13 07:01:31;;;;;;;7;2.4;;;;;;;7.44;82.27539;939.3333;;;;
2020/03/13 07:03:56;;;;;;;5.1;2.5;;;;;;;7.05;83.82031;939.2413;;;;
2020/03/13 07:06:21;;;;;;;10.7;2.8;;;;;;;7.32;83.27246;939.3596;;;;
2020/03/13 07:08:46;;;;;;;4.9;1.8;;;;;;;7.38;81.65234;939.4506;;;;
2020/03/13 07:11:11;;;;;;;3.4;1.3;;;;;;;7.89;80.31934;939.3563;;;;
2020/03/13 07:13:36;;;;;;;3.6;1.3;;;;;;;8.19;79.38672;939.4167;;;;
2020/03/13 07:16:01;;;;;;;6.6;2.9;;;;;;;8.42;77.70313;939.3618;;;;
2020/03/13 07:18:27;;;;;;;20.7;11;;;;;;;8.09;78.91406;939.4363;;;;
2020/03/13 07:20:52;;;;;;;10;4.5;;;;;;;8.51;78.51465;939.3865;;;;
2020/03/13 07:23:17;;;;;;;17.2;7.4;;;;;;;8.87;76.61328;939.4945;;;;
2020/03/13 07:25:42;;;;;;;9.3;4.2;;;;;;;8.76;76.61523;939.4969;;;;
2020/03/13 07:28:07;;;;;;;4.8;2.1;;;;;;;8.75;76.01074;939.4437;;;;
2020/03/13 07:30:32;;;;;;;27.7;12.3;;;;;;;8.9;76.43555;939.5053;;;;
2020/03/13 07:32:57;;;;;;;23.7;9.9;;;;;;;8.87;76.81836;939.5549;;;;
2020/03/13 07:35:22;;;;;;;28;11.7;;;;;;;8.98;77.09863;939.6275;;;;
2020/03/13 07:37:47;;;;;;;4.9;1.8;;;;;;;9.06;77.00977;939.6378;;;;
2020/03/13 07:40:12;;;;;;;2.2;1.1;;;;;;;8.93;77.37402;939.6298;;;;
2020/03/13 07:42:37;;;;;;;3.1;0.8;;;;;;;9;76.45508;939.6437;;;;
2020/03/13 07:45:03;;;;;;;2.2;0.8;;;;;;;9.36;75.53809;939.7108;;;;
2020/03/13 07:47:28;;;;;;;2.2;0.9;;;;;;;9.41;75.03516;939.8207;;;;
2020/03/13 07:49:53;;;;;;;2;0.9;;;;;;;9.35;74.25;939.8091;;;;
2020/03/13 07:52:18;;;;;;;2.4;1.1;;;;;;;9.06;75.16602;939.85;;;;
2020/03/13 07:54:43;;;;;;;2.7;1.5;;;;;;;9.01;74.93066;939.8837;;;;
2020/03/13 07:57:09;;;;;;;2.5;1.6;;;;;;;8.91;76.3916;939.9415;;;;
2020/03/13 07:59:34;;;;;;;2.8;1.3;;;;;;;8.9;75.18457;939.9255;;;;
2020/03/13 08:01:59;;;;;;;2;0.9;;;;;;;8.97;74.7207;939.976;;;;
2020/03/13 08:04:24;;;;;;;1.7;0.8;;;;;;;8.93;74.67773;939.9839;;;;
2020/03/13 08:06:50;;;;;;;2;1;;;;;;;8.88;74.47656;940.0164;;;;
2020/03/13 08:09:15;;;;;;;4.4;1.1;;;;;;;8.74;74.8623;940.0612;;;;
2020/03/13 08:11:40;;;;;;;3.1;1;;;;;;;8.66;75.22363;940.0112;;;;
2020/03/13 08:14:05;;;;;;;2.4;1.2;;;;;;;8.59;75.37012;940.0969;;;;
2020/03/13 08:16:30;;;;;;;3.1;1.2;;;;;;;8.41;75.82715;940.1337;;;;
2020/03/13 08:18:56;;;;;;;4.3;1.1;;;;;;;8.22;77.63281;940.1649;;;;
2020/03/13 08:21:21;;;;;;;1.9;0.8;;;;;;;8.4;76.35742;940.1316;;;;
2020/03/13 08:23:46;;;;;;;3.2;0.9;;;;;;;8.31;77.48047;940.1494;;;;
2020/03/13 08:26:11;;;;;;;3.8;1.1;;;;;;;8.49;76.95508;940.1973;;;;
2020/03/13 08:28:37;;;;;;;3.2;0.9;;;;;;;8.49;76.68066;940.1487;;;;
2020/03/13 08:31:02;;;;;;;6.6;1.3;;;;;;;8.18;77.58008;940.2445;;;;
2020/03/13 08:33:27;;;;;;;3.5;1.1;;;;;;;8.35;76.48633;940.294;;;;
2020/03/13 08:35:52;;;;;;;2.6;0.9;;;;;;;8.28;76.69043;940.3804;;;;
2020/03/13 08:38:17;;;;;;;4.5;1.1;;;;;;;8.42;76.41895;940.3624;;;;
2020/03/13 08:40:42;;;;;;;5.4;1.2;;;;;;;8.33;78.06152;940.3719;;;;
2020/03/13 08:43:07;;;;;;;4;1.2;;;;;;;8.57;77.02637;940.3853;;;;
2020/03/13 08:45:32;;;;;;;7;1.5;;;;;;;8.66;77.23438;940.3557;;;;
2020/03/13 08:47:58;;;;;;;4.5;1.5;;;;;;;8.68;75.0791;940.3759;;;;
2020/03/13 08:50:23;;;;;;;3.6;1.4;;;;;;;8.71;73.82129;940.3392;;;;
2020/03/13 08:52:48;;;;;;;4.6;1.2;;;;;;;8.84;74.02539;940.3356;;;;
2020/03/13 08:55:13;;;;;;;4.1;0.8;;;;;;;8.98;73.42383;940.4137;;;;
2020/03/13 08:57:38;;;;;;;2.8;0.8;;;;;;;9.07;72.90527;940.4324;;;;
2020/03/13 09:00:03;;;;;;;2.4;0.9;;;;;;;8.99;72.94922;940.4149;;;;
2020/03/13 09:02:28;;;;;;;5.3;1.5;;;;;;;8.98;74.69824;940.4083;;;;
2020/03/13 09:04:53;;;;;;;1.8;0.9;;;;;;;9.06;73.73438;940.4378;;;;
2020/03/13 09:07:18;;;;;;;1.2;0.7;;;;;;;8.94;73.91699;940.274;;;;
2020/03/13 09:09:44;;;;;;;2.5;0.8;;;;;;;8.97;74.11621;940.385;;;;
2020/03/13 09:12:09;;;;;;;1;0.5;;;;;;;9.2;72.72266;940.3934;;;;
2020/03/13 09:14:34;;;;;;;6.6;1.6;;;;;;;9.11;74.0166;940.4149;;;;
2020/03/13 09:17:07;;;;;;;6.2;1.9;;;;;;;9.37;75.28809;940.395;;;;
2020/03/13 09:19:33;;;;;;;3.9;1.2;;;;;;;9.53;72.99414;940.3703;;;;
2020/03/13 09:21:58;;;;;;;2.9;1.4;;;;;;;9.39;73.88086;940.3588;;;;
2020/03/13 09:24:23;;;;;;;2.8;1.2;;;;;;;9.63;72.29297;940.4224;;;;
2020/03/13 09:26:48;;;;;;;2.6;1.1;;;;;;;10.31;71.65527;940.3787;;;;
2020/03/13 09:29:13;;;;;;;4.2;0.9;;;;;;;11.05;69.37695;940.3658;;;;
2020/03/13 09:31:39;;;;;;;3.1;0.8;;;;;;;11.05;67.73047;940.4615;;;;
2020/03/13 09:34:04;;;;;;;2.2;1;;;;;;;11.38;67.51758;940.4978;;;;
2020/03/13 09:36:29;;;;;;;3;1.1;;;;;;;11.8;66.42676;940.5455;;;;
2020/03/13 09:38:54;;;;;;;1.9;0.7;;;;;;;11.12;65.7168;940.51;;;;
2020/03/13 09:41:19;;;;;;;1;0.6;;;;;;;10.62;66.88672;940.5491;;;;
2020/03/13 09:43:45;;;;;;;1.6;0.8;;;;;;;10.96;66.57422;940.5327;;;;
2020/03/13 09:46:09;;;;;;;1;0.6;;;;;;;11.61;64.02832;940.5792;;;;
2020/03/13 09:48:34;;;;;;;2;0.6;;;;;;;11.87;60.02441;940.5616;;;;
2020/03/13 09:50:59;;;;;;;1.8;0.7;;;;;;;11.51;62.80176;940.67;;;;
2020/03/13 09:53:24;;;;;;;1.1;0.7;;;;;;;11.52;61.76172;940.6686;;;;
2020/03/13 09:55:49;;;;;;;2.5;0.8;;;;;;;11.65;61.11621;940.7075;;;;
2020/03/13 09:58:15;;;;;;;0.9;0.5;;;;;;;11.71;61.89063;940.6219;;;;
2020/03/13 10:00:40;;;;;;;1.1;0.6;;;;;;;11.93;61.90039;940.6315;;;;
2020/03/13 10:03:05;;;;;;;2.4;0.8;;;;;;;11.46;62.06055;940.7053;;;;
2020/03/13 10:05:30;;;;;;;1.9;0.8;;;;;;;11.25;63.81543;940.7428;;;;
2020/03/13 10:07:55;;;;;;;1.1;0.7;;;;;;;11.16;62.21387;940.8005;;;;
2020/03/13 10:10:20;;;;;;;1.2;0.6;;;;;;;10.67;63.76367;940.8228;;;;
2020/03/13 10:12:45;;;;;;;3.8;0.7;;;;;;;10.77;63.88281;940.8066;;;;
2020/03/13 10:15:11;;;;;;;72;7.6;;;;;;;11;63.5166;940.7778;;;;
2020/03/13 10:17:36;;;;;;;5.2;0.9;;;;;;;11;64.63477;940.7913;;;;
2020/03/13 10:20:01;;;;;;;4.5;0.9;;;;;;;11.35;64.65332;940.7821;;;;
2020/03/13 10:22:26;;;;;;;4.2;0.9;;;;;;;11.26;64.32129;940.7062;;;;
2020/03/13 10:24:51;;;;;;;1.6;0.7;;;;;;;11.2;62.02344;940.6814;;;;
2020/03/13 10:27:16;;;;;;;1.7;0.7;;;;;;;11.18;62.81055;940.757;;;;
2020/03/13 10:29:42;;;;;;;1.6;0.7;;;;;;;11.58;58.0498;940.7194;;;;
2020/03/13 10:32:07;;;;;;;3.4;1;;;;;;;11.64;59.38477;940.741;;;;
2020/03/13 10:34:33;;;;;;;4.9;2;;;;;;;11.04;60.50391;940.7547;;;;
2020/03/13 10:36:58;;;;;;;31.7;13.2;;;;;;;11.16;63.18555;940.7464;;;;
2020/03/13 10:39:23;;;;;;;15.6;6.2;;;;;;;11.02;62.07813;940.6938;;;;
2020/03/13 10:41:48;;;;;;;6.9;2.8;;;;;;;10.89;61.22461;940.6251;;;;
2020/03/13 10:44:13;;;;;;;6.3;2.4;;;;;;;10.96;60.75488;940.6887;;;;
2020/03/13 10:46:38;;;;;;;13.1;5.8;;;;;;;11.12;60.51465;940.7076;;;;
2020/03/13 10:49:04;;;;;;;5.3;2.1;;;;;;;10.64;63.49609;940.6241;;;;
2020/03/13 10:51:31;;;;;;;5.1;1.8;;;;;;;10.61;63.11523;940.6946;;;;
2020/03/13 10:53:55;;;;;;;8.2;2.9;;;;;;;10.73;62.75586;940.6506;;;;
2020/03/13 10:56:20;;;;;;;6.7;2.6;;;;;;;10.87;63.2793;940.7125;;;;
2020/03/13 10:58:45;;;;;;;3.9;1.5;;;;;;;10.72;61.05176;940.688;;;;
2020/03/13 11:01:10;;;;;;;4.2;1.5;;;;;;;10.31;63.5166;940.5992;;;;
2020/03/13 11:03:35;;;;;;;2.9;1.2;;;;;;;10.44;63.86816;940.6085;;;;
2020/03/13 11:06:00;;;;;;;3.9;1.3;;;;;;;10.33;64.64941;940.6814;;;;
2020/03/13 11:08:25;;;;;;;2.2;1.2;;;;;;;10.79;61.79492;940.6921;;;;
2020/03/13 11:10:51;;;;;;;4.1;1.4;;;;;;;10.96;62.37793;940.6951;;;;
2020/03/13 11:13:16;;;;;;;2.8;1.4;;;;;;;11.29;60.49316;940.6763;;;;
2020/03/13 11:15:41;;;;;;;2.2;1.2;;;;;;;10.84;60.92188;940.6833;;;;
2020/03/13 11:18:06;;;;;;;4.2;1.5;;;;;;;10.7;62.39844;940.6567;;;;
2020/03/13 11:20:31;;;;;;;9.8;1.9;;;;;;;11.36;60.71973;940.6426;;;;
2020/03/13 11:22:56;;;;;;;5.6;1.6;;;;;;;11.76;59.34473;940.6287;;;;
2020/03/13 11:25:21;;;;;;;3.1;1.2;;;;;;;11.52;58.39746;940.608;;;;
2020/03/13 11:27:47;;;;;;;2.7;0.9;;;;;;;11.06;59.39844;940.6106;;;;
2020/03/13 11:30:12;;;;;;;2;1;;;;;;;11.35;57.89355;940.5366;;;;
2020/03/13 11:32:37;;;;;;;2.2;1;;;;;;;11.5;57.50098;940.6197;;;;
2020/03/13 11:35:02;;;;;;;2.2;0.8;;;;;;;11.6;55.84375;940.5441;;;;
2020/03/13 11:37:27;;;;;;;1.8;0.7;;;;;;;11.78;54.7793;940.5187;;;;
2020/03/13 11:39:52;;;;;;;7.5;1.2;;;;;;;11.72;56.48926;940.6205;;;;
2020/03/13 11:42:17;;;;;;;2.7;1;;;;;;;12.18;53.91211;940.5267;;;;
2020/03/13 11:44:42;;;;;;;2.4;1;;;;;;;12.83;51.78906;940.5514;;;;
2020/03/13 11:47:07;;;;;;;1.5;0.7;;;;;;;12.86;50.05859;940.5292;;;;
2020/03/13 11:49:32;;;;;;;3.3;0.9;;;;;;;12.58;52.59766;940.5392;;;;
2020/03/13 11:51:58;;;;;;;1.6;0.7;;;;;;;12.53;52.625;940.5086;;;;
2020/03/13 11:54:23;;;;;;;1.6;0.7;;;;;;;12.27;52.99512;940.4669;;;;
2020/03/13 11:56:48;;;;;;;1.3;0.7;;;;;;;12.18;54.17578;940.5642;;;;
2020/03/13 11:59:13;;;;;;;5.9;1;;;;;;;12.3;53.82324;940.5142;;;;
2020/03/13 12:01:38;;;;;;;5.4;1.2;;;;;;;12.19;53.15723;940.6337;;;;
2020/03/13 12:04:03;;;;;;;5.9;1.3;;;;;;;12.14;54.0791;940.5383;;;;
2020/03/13 12:06:28;;;;;;;7;2.2;;;;;;;11.78;54.0459;940.5491;;;;
2020/03/13 12:08:54;;;;;;;9.6;2.4;;;;;;;12.01;53.42188;940.5148;;;;
2020/03/13 12:11:19;;;;;;;8.3;2;;;;;;;11.66;54.84277;940.5385;;;;
2020/03/13 12:13:44;;;;;;;2.6;1.2;;;;;;;11.99;53.01758;940.45;;;;
2020/03/13 12:16:09;;;;;;;2.8;0.9;;;;;;;12.31;51.81934;940.4376;;;;
2020/03/13 12:18:34;;;;;;;4.9;1.2;;;;;;;12.3;51.85254;940.4472;;;;
2020/03/13 12:20:59;;;;;;;5;1;;;;;;;11.73;53.04395;940.4442;;;;
2020/03/13 12:23:24;;;;;;;2.6;1;;;;;;;11.92;52.88379;940.4264;;;;
2020/03/13 12:25:49;;;;;;;3.2;1;;;;;;;12;52.20605;940.387;;;;
2020/03/13 12:28:14;;;;;;;3.8;1.3;;;;;;;11.94;52.68066;940.3452;;;;
2020/03/13 12:30:40;;;;;;;3.5;1.1;;;;;;;11.98;52.94922;940.28;;;;
2020/03/13 12:33:06;;;;;;;3.1;1.1;;;;;;;11.76;53.66602;940.2961;;;;
2020/03/13 12:35:31;;;;;;;2.4;0.8;;;;;;;11.16;54.40332;940.3088;;;;
2020/03/13 12:37:56;;;;;;;3.8;1;;;;;;;11.26;53.45605;940.3237;;;;
2020/03/13 12:40:21;;;;;;;3.6;1.1;;;;;;;11.41;53.67969;940.384;;;;
2020/03/13 12:42:46;;;;;;;10.5;1.7;;;;;;;11.58;54.21582;940.4322;;;;
2020/03/13 12:45:11;;;;;;;3.8;1.1;;;;;;;11.15;53.87598;940.3103;;;;
2020/03/13 12:47:36;;;;;;;4.2;1.1;;;;;;;11.35;53.22559;940.2991;;;;
2020/03/13 12:50:01;;;;;;;2.7;1.1;;;;;;;11.38;54.08691;940.308;;;;
2020/03/13 12:52:27;;;;;;;4.1;0.9;;;;;;;11.02;55.50586;940.2029;;;;
2020/03/13 12:54:52;;;;;;;4;0.9;;;;;;;10.73;56.91992;940.2548;;;;
2020/03/13 12:57:17;;;;;;;3.5;1.1;;;;;;;10.91;54.89746;940.2238;;;;
2020/03/13 12:59:42;;;;;;;3.9;1.2;;;;;;;11.17;55.42188;940.2419;;;;
2020/03/13 13:02:07;;;;;;;7.8;1.6;;;;;;;11.26;55.69727;940.2774;;;;
2020/03/13 13:04:32;;;;;;;6.6;1.8;;;;;;;11.16;54.26563;940.1788;;;;
2020/03/13 13:06:57;;;;;;;3.1;0.8;;;;;;;10.6;54.69922;940.101;;;;
2020/03/13 13:09:22;;;;;;;2.2;1.1;;;;;;;10.37;57.07715;940.0413;;;;
2020/03/13 13:11:48;;;;;;;3.5;0.8;;;;;;;10.15;53.69531;940.0011;;;;
2020/03/13 13:14:13;;;;;;;3.5;1.1;;;;;;;10.35;55.02051;940.1572;;;;
2020/03/13 13:16:38;;;;;;;1.5;0.9;;;;;;;10.58;56.67188;940.0975;;;;
2020/03/13 13:19:03;;;;;;;1.8;0.9;;;;;;;10.72;55.41113;940.0708;;;;
2020/03/13 13:21:28;;;;;;;2.4;0.9;;;;;;;10.52;56.05762;940.0394;;;;
2020/03/13 13:23:53;;;;;;;2.4;1;;;;;;;10.54;55.63867;940.0181;;;;
2020/03/13 13:26:19;;;;;;;3.1;0.9;;;;;;;10.46;55.98145;939.9065;;;;
2020/03/13 13:28:44;;;;;;;1.9;0.7;;;;;;;10.14;56.35156;940.0328;;;;
2020/03/13 13:31:09;;;;;;;1.8;0.8;;;;;;;10.4;55.71289;940.1539;;;;
2020/03/13 13:33:34;;;;;;;4.2;1.3;;;;;;;10.51;55.45117;940.1269;;;;
2020/03/13 13:35:59;;;;;;;7.6;1.6;;;;;;;10.8;56.13965;940.1831;;;;
2020/03/13 13:38:24;;;;;;;5.1;1.1;;;;;;;10.71;54.37012;940.0882;;;;
2020/03/13 13:40:49;;;;;;;2.4;0.9;;;;;;;10.64;54.04004;940.1057;;;;
2020/03/13 13:43:14;;;;;;;2.9;0.8;;;;;;;10.7;53.92285;940.0251;;;;
2020/03/13 13:45:39;;;;;;;2.8;1;;;;;;;10.71;54.66699;940.0818;;;;
2020/03/13 13:48:04;;;;;;;3.4;0.9;;;;;;;10.83;52.30566;940.0787;;;;
2020/03/13 13:50:29;;;;;;;3.4;1.1;;;;;;;10.84;52.18066;940.1721;;;;
2020/03/13 13:52:54;;;;;;;5.7;1;;;;;;;10.66;52.35352;940.0733;;;;
2020/03/13 13:55:20;;;;;;;1.6;0.8;;;;;;;10.64;53.04688;940.1805;;;;
2020/03/13 13:57:49;;;;;;;4.1;1.2;;;;;;;10.58;52.23047;940.1708;;;;
2020/03/13 14:00:14;;;;;;;3;0.9;;;;;;;10.72;51.24121;940.2261;;;;
2020/03/13 14:02:39;;;;;;;2.5;1;;;;;;;11.03;50.2373;940.0907;;;;
2020/03/13 14:05:04;;;;;;;2.6;1;;;;;;;10.84;50.35254;940.1011;;;;
2020/03/13 14:07:30;;;;;;;4.6;1.2;;;;;;;11.1;50.08496;940.046;;;;
2020/03/13 14:09:55;;;;;;;4.8;1.2;;;;;;;11.04;48.95801;940.063;;;;
2020/03/13 14:12:20;;;;;;;4.3;1.1;;;;;;;11.13;48.4541;940.0909;;;;
2020/03/13 14:14:49;;;;;;;3.7;1.2;;;;;;;11.61;46.87012;940.0488;;;;
2020/03/13 14:17:14;;;;;;;2.8;1.1;;;;;;;11.44;47.16211;939.9358;;;;
2020/03/13 14:19:39;;;;;;;2.8;1;;;;;;;11.4;46.81445;939.9893;;;;
2020/03/13 14:22:04;;;;;;;4;1.2;;;;;;;12.15;46.55078;939.8942;;;;